Lake Tahoe Airport
KTVL : now visible

Airfield :











YOU CAN JOIN US ON...

 
LOGIN :

Register | Disclaimer

   EN    FR    IT 

 









Legend :    VFR   Marginal VFR   IFR   Intensive IFR   Very Intensive IFR
Visi :
Ceiling :
>= 8 km
>= 3000ft
5 to 8 km
1000 to 3000 ft
1500m to 5 km
500 to 1000 ft
800 to 1500m
200 to 500 ft
< 800m
< 200 ft
Symbols :   Thunderstorms  Fog  Heavy snow  Heavy precipitations  Wind > 20 kt






- Airport Elevation : 6264 ft
- IATA code : TVL


KTVL - Lake Tahoe

CURRENT METAR :
  • 291553Z AUTO 03003KT 10SM CLR 18/02 A3020 RMK AO2 SLP168 T01780022

EXPIRED METARs :
  • 291453Z AUTO 00000KT 10SM CLR 13/03 A3021 RMK AO2 SLP173 T01280033 58003
  • 291353Z AUTO 17003KT 10SM CLR 06/03 A3022 RMK AO2 SLP180 T00610028

TAF KTVL
Valid from the 29 at 12:00 until the 30 at 12:00 UTC


291127Z 2912/3012 19003KT P6SM SCT200
FM291900 02009KT P6SM FEW070 BKN160
FM292200 19009G16KT P6SM VCSH SCT070 BKN120
FM300700 19003KT P6SM VCTS SCT060CB BKN100
KZOA FIR / North America



MET'MAP, your aeronautical weather chart ! - Copyright ORBIFLY December 2007 - Disclaimer

ORBIFLY MET'MAP TEAM :

Programming & Development : Alexandra Zaïnal
Concept & original design : Baudouin d'Aumeries
Assistance for programming : Marc-Olivier Méhu
Technical & hardware support : Manuel Goepfert

Contact : metmap@orbifly.com




SOURCES & CREDITS :

   NOAA       Earth
Advisory